Time;durP1;ratioP1;P1;durP2;ratioP2;P2;SDS_P1;SDS_P2;PMS_P1;PMS_P2;Temp;Humidity;BMP_temperature;BMP_pressure;BME280_temperature;BME280_humidity;BME280_pressure;Samples;Min_cycle;Max_cycle;Signal;HPM_P1;HPM_P2
2021/03/27 00:01:54;;;;;;;27.05;14.45;;;;;;;31.94;25.37;159575.09;1751462;82;21217;-74
2021/03/27 00:04:46;;;;;;;23.60;13.25;;;;;;;31.94;25.23;159575.09;1743201;82;21863;-75
2021/03/27 00:07:44;;;;;;;25.80;13.28;;;;;;;31.79;25.37;159536.38;1721860;83;21360;-75
2021/03/27 00:10:30;;;;;;;23.73;12.73;;;;;;;31.70;25.41;159511.06;1753127;81;21207;-75
2021/03/27 00:13:17;;;;;;;25.60;12.65;;;;;;;31.84;25.36;159548.38;1721681;83;21189;-75
2021/03/27 00:16:30;;;;;;;27.62;13.45;;;;;;;31.88;25.34;159559.06;1741221;80;21158;-75
2021/03/27 00:19:18;;;;;;;25.02;13.22;;;;;;;32.07;25.15;159609.75;1722041;83;21383;-75
2021/03/27 00:22:03;;;;;;;25.92;13.62;;;;;;;32.01;25.25;159595.06;1718766;83;21858;-75
2021/03/27 00:25:15;;;;;;;22.82;13.32;;;;;;;31.98;25.19;159587.09;1718982;83;21280;-74
2021/03/27 00:27:56;;;;;;;24.87;12.85;;;;;;;31.99;25.21;159588.41;1719933;82;21356;-75
2021/03/27 00:30:48;;;;;;;19.77;11.40;;;;;;;31.86;25.26;159555.08;1736541;81;21946;-74
2021/03/27 00:33:28;;;;;;;26.00;12.98;;;;;;;31.86;25.27;159553.72;1677997;82;21378;-75
2021/03/27 00:36:15;;;;;;;25.88;13.83;;;;;;;31.88;25.30;159559.06;1751339;82;21855;-75
2021/03/27 00:39:17;;;;;;;28.25;14.43;;;;;;;31.89;25.25;159563.05;1749860;82;21248;-74
2021/03/27 00:42:02;;;;;;;23.52;13.32;;;;;;;31.93;25.21;159573.73;1761455;81;21790;-74
2021/03/27 00:44:46;;;;;;;26.37;13.40;;;;;;;31.93;25.21;159573.73;1763605;81;21243;-75
2021/03/27 00:47:22;;;;;;;26.52;12.88;;;;;;;31.83;25.23;159545.75;1751289;82;21358;-75
2021/03/27 00:50:06;;;;;;;26.73;13.95;;;;;;;31.83;25.24;159547.06;1751141;80;21237;-77
2021/03/27 00:52:47;;;;;;;29.27;14.38;;;;;;;31.90;25.20;159564.41;1715318;83;21340;-75
2021/03/27 00:55:39;;;;;;;24.20;13.60;;;;;;;31.99;25.14;159588.41;1717341;83;21962;-74
2021/03/27 00:58:28;;;;;;;30.17;13.83;;;;;;;31.97;25.15;159584.44;1698549;84;21194;-74
2021/03/27 01:01:04;;;;;;;28.45;13.72;;;;;;;32.11;25.06;159621.84;1719330;83;21174;-75
2021/03/27 01:03:45;;;;;;;29.02;14.30;;;;;;;32.07;25.04;159611.09;1723376;83;21768;-75
2021/03/27 01:06:44;;;;;;;28.80;14.18;;;;;;;32.22;24.90;159649.84;1727501;83;21301;-75
2021/03/27 01:09:43;;;;;;;25.45;13.18;;;;;;;32.07;25.08;159609.75;1722539;83;21225;-75
2021/03/27 01:12:40;;;;;;;35.00;15.48;;;;;;;32.04;25.12;159603.09;1703978;83;21240;-74
2021/03/27 01:15:20;;;;;;;30.95;14.28;;;;;;;32.08;25.07;159613.83;1727095;83;21245;-74
2021/03/27 01:17:58;;;;;;;27.05;14.45;;;;;;;32.22;24.94;159649.84;1727444;83;21341;-75
2021/03/27 01:20:43;;;;;;;24.00;12.35;;;;;;;32.16;24.97;159633.84;1727545;83;21209;-74
2021/03/27 01:23:16;;;;;;;28.42;13.58;;;;;;;32.11;25.02;159620.48;1722836;82;21372;-75
2021/03/27 01:25:49;;;;;;;25.88;13.43;;;;;;;32.19;24.94;159643.19;1719370;83;21415;-75
2021/03/27 01:28:26;;;;;;;28.25;15.05;;;;;;;32.06;24.94;159608.44;1719499;83;21824;-75
2021/03/27 01:31:10;;;;;;;30.00;15.15;;;;;;;31.66;25.15;159501.69;1712655;83;21238;-75
2021/03/27 01:33:59;;;;;;;25.95;13.20;;;;;;;31.04;25.77;159334.95;1718634;82;21671;-74
2021/03/27 01:36:59;;;;;;;27.45;13.95;;;;;;;30.96;25.81;159312.28;1719516;83;21828;-75
2021/03/27 01:39:50;;;;;;;23.98;14.00;;;;;;;30.75;25.95;159256.25;1719338;83;21395;-75
2021/03/27 01:42:37;;;;;;;28.38;13.78;;;;;;;31.53;25.51;159467.00;1709512;83;21312;-75
2021/03/27 01:45:29;;;;;;;28.55;14.68;;;;;;;31.71;25.23;159513.73;1719517;83;21839;-75
2021/03/27 01:48:18;;;;;;;28.05;14.00;;;;;;;30.74;25.96;159253.58;1718951;83;21403;-74
2021/03/27 01:51:03;;;;;;;24.20;14.00;;;;;;;30.85;25.96;159284.27;1717498;82;21423;-75
2021/03/27 01:54:02;;;;;;;26.02;14.20;;;;;;;31.74;25.36;159521.70;1719038;83;21408;-75
2021/03/27 01:56:51;;;;;;;25.90;13.85;;;;;;;31.76;25.23;159528.41;1751975;82;21217;-75
2021/03/27 01:59:32;;;;;;;28.77;13.57;;;;;;;31.31;25.67;159406.97;1706923;84;21808;-74
2021/03/27 02:02:35;;;;;;;27.07;13.38;;;;;;;31.68;25.25;159507.03;1721653;83;21308;-74
2021/03/27 02:05:12;;;;;;;26.35;13.85;;;;;;;31.81;25.12;159541.72;1641519;86;21283;-74
2021/03/27 02:08:12;;;;;;;26.52;13.75;;;;;;;31.69;25.17;159508.39;1653829;85;22736;-75
2021/03/27 02:11:29;;;;;;;26.60;14.18;;;;;;;31.49;25.30;159454.95;1669578;81;21193;-75
2021/03/27 02:14:23;;;;;;;28.47;13.70;;;;;;;31.70;25.17;159511.06;1719017;83;21316;-75
2021/03/27 02:17:11;;;;;;;23.35;12.55;;;;;;;31.62;25.24;159489.69;1689734;83;21256;-74
2021/03/27 02:20:24;;;;;;;25.48;13.78;;;;;;;31.67;25.30;159503.05;1719326;83;21173;-74
2021/03/27 02:23:33;;;;;;;25.82;14.10;;;;;;;31.76;25.22;159528.41;1719176;83;21214;-75
2021/03/27 02:26:46;;;;;;;24.05;12.90;;;;;;;31.81;25.14;159541.72;1716985;82;21648;-75
2021/03/27 02:29:55;;;;;;;23.30;13.75;;;;;;;31.84;25.10;159549.73;1744732;82;21335;-75
2021/03/27 02:32:58;;;;;;;20.95;12.55;;;;;;;31.84;25.12;159548.38;1733469;82;21364;-74
2021/03/27 02:35:54;;;;;;;25.30;12.90;;;;;;;31.90;25.12;159565.72;1692968;85;21407;-75
2021/03/27 02:38:37;;;;;;;25.37;13.62;;;;;;;32.24;24.89;159656.50;1704702;83;21171;-74
2021/03/27 02:41:53;;;;;;;28.27;12.58;;;;;;;32.23;24.82;159653.88;1685720;84;21406;-74
2021/03/27 02:44:46;;;;;;;24.70;13.05;;;;;;;32.23;24.76;159652.50;1709955;83;21407;-74
2021/03/27 02:47:48;;;;;;;24.00;12.60;;;;;;;31.19;25.36;159373.66;1721491;81;21387;-74
2021/03/27 02:51:00;;;;;;;27.37;13.35;;;;;;;30.88;25.85;159290.91;1744656;82;21284;-75
2021/03/27 02:54:17;;;;;;;21.62;12.88;;;;;;;30.30;26.36;159136.27;1721347;83;21375;-76
2021/03/27 02:56:58;;;;;;;25.20;12.03;;;;;;;31.06;25.96;159338.98;1721745;83;21355;-74
2021/03/27 03:00:01;;;;;;;24.37;12.53;;;;;;;31.88;25.13;159559.06;1690025;83;21163;-75
2021/03/27 03:02:54;;;;;;;23.45;12.15;;;;;;;31.99;25.01;159588.41;1715436;83;21379;-75
2021/03/27 03:05:50;;;;;;;22.15;13.13;;;;;;;32.02;24.92;159596.42;1719456;83;21241;-74
2021/03/27 03:08:41;;;;;;;23.45;12.68;;;;;;;30.32;26.26;159142.91;1719263;83;21321;-75
2021/03/27 03:11:30;;;;;;;24.37;13.78;;;;;;;31.42;25.50;159436.31;1719110;83;21265;-75
2021/03/27 03:14:22;;;;;;;25.25;12.43;;;;;;;31.83;25.17;159547.06;1689979;83;21372;-75
2021/03/27 03:17:04;;;;;;;25.00;13.03;;;;;;;30.89;25.68;159294.94;1707652;83;21745;-75
2021/03/27 03:19:49;;;;;;;26.00;12.55;;;;;;;30.10;26.56;159082.97;1718560;83;21682;-74
2021/03/27 03:22:41;;;;;;;23.10;12.50;;;;;;;30.12;26.58;159086.95;1751092;82;21375;-75
2021/03/27 03:25:17;;;;;;;23.62;13.03;;;;;;;30.04;26.66;159065.66;1706166;84;21376;-75
2021/03/27 03:28:16;;;;;;;22.48;12.43;;;;;;;30.05;26.66;159069.63;1717613;83;21355;-75
2021/03/27 03:30:57;;;;;;;25.90;13.10;;;;;;;30.09;26.67;159079.00;1740159;82;22451;-75
2021/03/27 03:33:58;;;;;;;24.60;12.43;;;;;;;30.22;26.56;159113.59;1730397;82;21327;-75
2021/03/27 03:36:58;;;;;;;26.68;13.08;;;;;;;30.20;26.60;159108.31;1721891;81;21360;-75
2021/03/27 03:39:52;;;;;;;23.95;14.28;;;;;;;30.01;26.67;159057.66;1716198;83;21347;-74
2021/03/27 03:42:58;;;;;;;20.72;11.90;;;;;;;29.96;26.80;159044.36;1706891;84;21320;-74
2021/03/27 03:45:54;;;;;;;24.82;13.32;;;;;;;29.97;26.83;159047.03;1721932;83;21717;-75
2021/03/27 03:49:04;;;;;;;28.20;13.43;;;;;;;29.99;26.85;159052.31;1739293;82;21175;-75
2021/03/27 03:51:57;;;;;;;24.43;13.20;;;;;;;30.39;26.54;159161.59;1714009;83;21230;-75
2021/03/27 03:54:44;;;;;;;25.00;12.68;;;;;;;30.57;26.36;159209.59;1739708;82;21211;-74
2021/03/27 03:57:36;;;;;;;25.12;13.20;;;;;;;30.66;26.23;159232.27;1711200;83;21217;-74
2021/03/27 04:00:25;;;;;;;26.90;13.65;;;;;;;30.50;26.39;159190.97;1721206;83;21871;-75
2021/03/27 04:03:24;;;;;;;27.85;13.95;;;;;;;30.54;26.32;159200.28;1683764;84;21312;-75
2021/03/27 04:06:03;;;;;;;30.02;15.48;;;;;;;30.41;26.32;159166.94;1715500;83;21316;-74
2021/03/27 04:09:14;;;;;;;34.73;15.10;;;;;;;30.25;26.56;159121.59;1721909;82;21383;-74
2021/03/27 04:12:10;;;;;;;30.57;14.70;;;;;;;30.28;26.57;159129.61;1721801;83;21951;-74
2021/03/27 04:15:06;;;;;;;49.38;21.55;;;;;;;30.29;26.51;159133.59;1721651;83;21359;-75
2021/03/27 04:18:14;;;;;;;43.30;18.85;;;;;;;30.32;26.38;159140.28;1713054;83;21697;-74
2021/03/27 04:21:15;;;;;;;31.60;16.35;;;;;;;30.20;26.48;159108.31;1687523;83;21202;-74
2021/03/27 04:24:01;;;;;;;88.25;39.50;;;;;;;30.01;26.51;159059.02;1711304;83;21155;-74
2021/03/27 04:26:44;;;;;;;75.25;33.20;;;;;;;29.87;26.77;159020.28;1721552;83;21363;-74
2021/03/27 04:29:38;;;;;;;76.90;31.55;;;;;;;29.94;26.82;159040.33;1717257;83;21300;-75
2021/03/27 04:32:31;;;;;;;66.25;29.12;;;;;;;30.07;26.77;159074.97;1758372;81;21843;-74
2021/03/27 04:35:30;;;;;;;55.25;25.68;;;;;;;30.20;26.67;159109.63;1737409;81;21221;-75
2021/03/27 04:38:47;;;;;;;77.50;33.33;;;;;;;30.01;26.81;159059.02;1736315;81;21201;-74
2021/03/27 04:41:35;;;;;;;77.53;31.23;;;;;;;30.01;26.83;159057.66;1758397;81;21311;-75
2021/03/27 04:44:24;;;;;;;73.17;29.05;;;;;;;30.02;26.82;159060.31;1758071;81;21272;-75
2021/03/27 04:47:21;;;;;;;43.98;21.05;;;;;;;30.00;26.91;159054.97;1721756;81;21288;-75
2021/03/27 04:50:25;;;;;;;37.45;17.65;;;;;;;30.12;27.01;159088.31;1695573;84;21322;-75
2021/03/27 04:53:20;;;;;;;31.62;16.27;;;;;;;29.70;27.35;158975.03;1695611;83;21413;-75
2021/03/27 04:56:32;;;;;;;31.02;15.35;;;;;;;29.55;27.37;158936.41;1693231;81;21212;-76
2021/03/27 04:59:31;;;;;;;31.90;15.23;;;;;;;29.30;27.55;158868.42;1758291;81;21205;-76
2021/03/27 05:02:16;;;;;;;29.37;14.80;;;;;;;29.19;27.65;158839.13;1758129;81;21169;-76
2021/03/27 05:05:14;;;;;;;41.42;19.67;;;;;;;29.19;27.62;158837.81;1757605;81;21410;-76
2021/03/27 05:08:00;;;;;;;46.75;21.20;;;;;;;29.19;27.74;158837.81;1758143;81;21316;-75
2021/03/27 05:10:46;;;;;;;37.95;17.98;;;;;;;29.24;27.62;158852.47;1758582;81;21764;-76
2021/03/27 05:13:45;;;;;;;30.80;17.20;;;;;;;29.18;27.60;158836.47;1758195;81;21300;-75
2021/03/27 05:16:22;;;;;;;41.77;20.50;;;;;;;29.12;27.55;158820.50;1734919;81;21469;-75
2021/03/27 05:19:28;;;;;;;61.00;27.45;;;;;;;28.88;27.71;158755.25;1758213;81;21819;-75
2021/03/27 05:22:30;;;;;;;84.90;41.25;;;;;;;28.71;27.97;158711.28;1758118;81;21165;-75
2021/03/27 05:25:40;;;;;;;68.70;32.42;;;;;;;28.94;27.90;158772.56;1659388;86;21265;-76
2021/03/27 05:28:30;;;;;;;43.25;22.58;;;;;;;29.07;27.85;158807.17;1761498;81;21238;-75
2021/03/27 05:31:28;;;;;;;40.52;20.17;;;;;;;29.28;27.76;158863.13;1758318;81;22474;-76
2021/03/27 05:34:18;;;;;;;36.30;17.35;;;;;;;29.40;27.67;158896.45;1749093;81;21888;-75
2021/03/27 05:37:14;;;;;;;38.20;17.42;;;;;;;29.44;27.69;158907.13;1751218;81;21258;-76
2021/03/27 05:40:42;;;;;;;39.27;18.48;;;;;;;29.57;27.57;158940.39;1754864;81;21304;-74
2021/03/27 05:43:53;;;;;;;35.10;17.02;;;;;;;29.66;27.43;158964.36;1747585;81;21203;-75
2021/03/27 05:46:40;;;;;;;35.52;16.75;;;;;;;29.86;27.29;159018.98;1738460;81;21422;-76
2021/03/27 05:49:36;;;;;;;35.68;18.55;;;;;;;29.82;27.33;159007.00;1762987;80;21191;-75
2021/03/27 05:52:22;;;;;;;33.63;17.95;;;;;;;29.85;27.33;159016.31;1728030;82;21171;-75
2021/03/27 05:55:36;;;;;;;33.13;15.70;;;;;;;29.95;27.37;159041.69;1729592;81;21192;-76
2021/03/27 05:58:36;;;;;;;32.45;15.13;;;;;;;30.09;27.24;159079.00;1715644;81;21171;-76
2021/03/27 06:01:43;;;;;;;28.50;15.43;;;;;;;30.16;27.21;159098.94;1731868;82;21173;-76
2021/03/27 06:04:58;;;;;;;27.48;14.05;;;;;;;30.20;27.18;159109.63;1719597;83;21753;-78
2021/03/27 06:08:18;;;;;;;27.58;14.50;;;;;;;30.26;26.91;159124.28;1747304;81;21179;-77
2021/03/27 06:11:31;;;;;;;30.55;15.08;;;;;;;30.34;26.78;159146.94;1757093;81;21320;-81
2021/03/27 06:14:48;;;;;;;28.12;14.25;;;;;;;30.31;26.89;159137.63;1756440;81;21371;-75
2021/03/27 06:18:05;;;;;;;32.30;15.93;;;;;;;30.35;26.84;159150.91;1743389;81;21184;-75
2021/03/27 06:21:06;;;;;;;27.70;14.47;;;;;;;30.39;26.90;159161.59;1757981;81;21712;-74
2021/03/27 06:24:05;;;;;;;34.83;15.48;;;;;;;30.44;26.72;159174.89;1743511;81;21415;-76
2021/03/27 06:27:27;;;;;;;34.20;15.63;;;;;;;30.57;26.51;159208.28;1708549;81;21158;-77
2021/03/27 06:30:18;;;;;;;35.52;16.05;;;;;;;30.65;26.25;159229.59;1752442;80;21666;-76
2021/03/27 06:33:43;;;;;;;29.57;15.90;;;;;;;30.72;25.99;159248.28;1756389;80;21209;-78
2021/03/27 06:37:21;;;;;;;27.60;15.28;;;;;;;30.62;26.32;159222.95;1719639;81;21716;-77
2021/03/27 06:40:28;;;;;;;30.85;14.47;;;;;;;30.74;26.14;159253.58;1749134;81;21398;-75
2021/03/27 06:43:29;;;;;;;35.20;16.23;;;;;;;30.76;26.25;159260.28;1744902;81;21347;-77
2021/03/27 06:46:27;;;;;;;30.05;15.43;;;;;;;30.69;26.18;159241.59;1751144;81;21380;-78
2021/03/27 06:49:25;;;;;;;33.98;16.80;;;;;;;30.79;26.35;159268.23;1739032;81;21322;-75
2021/03/27 06:52:26;;;;;;;28.75;15.32;;;;;;;30.84;26.12;159281.59;1750909;81;21177;-78
2021/03/27 06:55:13;;;;;;;31.97;15.65;;;;;;;31.01;26.10;159326.94;1742963;81;21229;-79
2021/03/27 06:58:33;;;;;;;33.47;17.10;;;;;;;31.30;25.93;159405.66;1736730;81;21225;-77
2021/03/27 07:01:41;;;;;;;30.52;15.60;;;;;;;31.30;25.93;159405.66;1741750;81;21839;-80
2021/03/27 07:05:03;;;;;;;32.15;16.02;;;;;;;31.42;25.82;159437.61;1735685;81;21212;-79
2021/03/27 07:08:04;;;;;;;29.45;16.45;;;;;;;31.46;25.58;159448.30;1734146;81;21334;-77
2021/03/27 07:11:02;;;;;;;31.53;17.53;;;;;;;31.56;25.60;159475.02;1738381;81;21221;-77
2021/03/27 07:14:10;;;;;;;29.72;17.20;;;;;;;31.60;25.47;159485.70;1738171;81;21208;-77
2021/03/27 07:17:36;;;;;;;31.12;17.20;;;;;;;32.08;25.24;159612.41;1739285;81;21248;-80
2021/03/27 07:20:51;;;;;;;31.87;17.37;;;;;;;32.00;25.14;159591.09;1735919;80;21669;-78
2021/03/27 07:23:45;;;;;;;32.00;17.12;;;;;;;32.15;24.97;159632.48;1737000;81;21295;-79
2021/03/27 07:26:43;;;;;;;31.52;16.95;;;;;;;32.25;25.08;159660.53;1741721;81;21232;-76
2021/03/27 07:29:44;;;;;;;29.80;15.20;;;;;;;32.28;25.23;159668.55;1744559;81;21368;-78
2021/03/27 07:32:59;;;;;;;25.08;14.23;;;;;;;32.41;25.24;159703.19;1727484;81;21895;-81
2021/03/27 07:36:00;;;;;;;23.02;14.10;;;;;;;32.58;25.12;159747.28;1725986;81;21379;-78
2021/03/27 07:39:08;;;;;;;28.83;14.63;;;;;;;33.00;24.88;159859.45;1725376;82;21451;-80
2021/03/27 07:42:06;;;;;;;24.67;14.65;;;;;;;33.04;24.64;159870.16;1717796;82;21388;-83
2021/03/27 07:44:50;;;;;;;30.88;15.88;;;;;;;33.05;24.68;159872.78;1725525;80;22057;-82
2021/03/27 07:48:02;;;;;;;26.48;14.15;;;;;;;33.15;24.69;159900.88;1724369;82;21867;-81
2021/03/27 07:50:58;;;;;;;27.27;15.28;;;;;;;33.20;24.71;159914.25;1724722;80;21403;-80
2021/03/27 07:53:44;;;;;;;26.60;13.50;;;;;;;33.34;24.50;159952.97;1707908;80;21246;-84
2021/03/27 07:56:59;;;;;;;25.35;13.03;;;;;;;33.61;24.32;160023.80;1725664;82;21375;-87
2021/03/27 07:59:58;;;;;;;26.52;13.75;;;;;;;33.83;23.97;160082.56;1724082;80;21364;-87
2021/03/27 08:02:41;;;;;;;24.25;12.70;;;;;;;33.95;23.64;160114.63;1702331;82;21276;-85
2021/03/27 08:05:46;;;;;;;26.97;13.72;;;;;;;34.09;23.82;160152.09;1723629;81;21388;-83
2021/03/27 08:09:10;;;;;;;27.22;13.00;;;;;;;34.20;23.72;160182.86;1686044;82;21304;-79
2021/03/27 08:12:03;;;;;;;25.92;12.50;;;;;;;34.36;23.68;160225.58;1726284;80;22589;-82
2021/03/27 08:15:17;;;;;;;21.37;12.82;;;;;;;34.51;23.56;160265.69;1721137;80;21360;-78
2021/03/27 08:18:38;;;;;;;21.93;12.85;;;;;;;34.56;23.31;160280.39;1728116;82;21241;-81
2021/03/27 08:21:48;;;;;;;23.40;12.40;;;;;;;34.71;23.25;160319.19;1717985;82;21257;-77
2021/03/27 08:24:41;;;;;;;20.77;12.00;;;;;;;34.91;23.24;160372.64;1727914;82;21206;-82
2021/03/27 08:27:39;;;;;;;23.40;13.55;;;;;;;35.16;23.24;160440.92;1679014;82;21384;-81
2021/03/27 18:14:27;;;;;;;214.93;77.22;;;;;;;31.55;23.04;159470.98;1673946;79;21968;-82
2021/03/27 18:17:28;;;;;;;227.10;76.42;;;;;;;31.26;23.35;159392.31;1670710;83;21661;-86
2021/03/27 18:20:18;;;;;;;147.93;58.83;;;;;;;30.98;23.74;159318.92;1633773;86;21235;-83
2021/03/27 18:23:00;;;;;;;181.57;67.75;;;;;;;30.56;23.92;159206.92;1662994;83;21309;-81
2021/03/27 18:25:37;;;;;;;181.20;68.02;;;;;;;30.57;24.12;159209.59;1671596;83;21198;-76
2021/03/27 18:28:22;;;;;;;152.25;62.25;;;;;;;30.49;24.34;159188.30;1675685;83;21230;-80
2021/03/27 18:31:04;;;;;;;162.22;60.45;;;;;;;30.34;24.37;159148.25;1663858;84;21246;-82
2021/03/27 18:34:04;;;;;;;149.47;61.75;;;;;;;30.19;24.54;159105.64;1673858;83;21895;-78
2021/03/27 18:36:52;;;;;;;170.40;65.03;;;;;;;30.28;24.48;159130.92;1664121;83;21364;-83
2021/03/27 18:39:53;;;;;;;205.52;82.72;;;;;;;30.19;24.50;159105.64;1670682;83;21396;-88
2021/03/27 18:42:45;;;;;;;244.75;94.92;;;;;;;30.04;24.61;159066.97;1669096;83;21424;-86
2021/03/27 18:45:30;;;;;;;254.20;102.40;;;;;;;29.85;24.62;159016.31;1662876;83;21225;-81
2021/03/27 18:48:20;;;;;;;223.50;94.05;;;;;;;29.73;24.64;158984.34;1670039;83;21691;-79
2021/03/27 18:51:11;;;;;;;230.43;98.60;;;;;;;29.64;24.58;158959.02;1664939;83;21222;-81
2021/03/27 18:53:52;;;;;;;261.70;106.67;;;;;;;29.71;24.57;158979.00;1666199;83;21395;-85
2021/03/27 18:56:30;;;;;;;262.63;107.30;;;;;;;29.70;24.59;158975.03;1671454;83;21218;-82
2021/03/27 18:59:34;;;;;;;252.53;106.30;;;;;;;29.70;24.63;158975.03;1667042;83;21213;-83
2021/03/27 19:02:15;;;;;;;246.60;101.92;;;;;;;29.70;24.54;158975.03;1688587;84;21388;-80
2021/03/27 19:05:01;;;;;;;250.05;101.58;;;;;;;29.75;24.46;158988.31;1651492;85;21884;-81
2021/03/27 19:07:42;;;;;;;228.10;95.30;;;;;;;29.68;24.30;158969.69;1690385;83;21884;-80
2021/03/27 19:10:30;;;;;;;231.00;94.62;;;;;;;29.60;24.25;158948.41;1655718;85;21300;-78
2021/03/27 19:13:18;;;;;;;210.70;88.90;;;;;;;29.59;24.31;158947.03;1686102;84;21808;-80
2021/03/27 19:16:15;;;;;;;221.60;94.15;;;;;;;29.60;24.30;158948.41;1674747;83;21542;-80
2021/03/27 19:18:58;;;;;;;221.18;92.17;;;;;;;29.57;24.28;158940.39;1687537;83;21400;-82
2021/03/27 19:21:43;;;;;;;222.80;87.57;;;;;;;29.75;24.15;158988.31;1654877;85;21377;-80
2021/03/27 19:24:44;;;;;;;206.07;87.60;;;;;;;29.59;24.22;158947.03;1682632;84;21835;-79
2021/03/27 19:27:31;;;;;;;196.82;83.85;;;;;;;29.59;24.24;158947.03;1619474;85;21336;-81
2021/03/27 19:30:31;;;;;;;200.87;85.15;;;;;;;29.53;24.33;158931.09;1655510;86;22177;-80
2021/03/27 19:33:14;;;;;;;211.92;82.60;;;;;;;29.50;24.38;158921.78;1642202;86;21709;-80
2021/03/27 19:35:53;;;;;;;193.95;86.05;;;;;;;29.50;24.41;158923.08;1622903;88;21384;-81
2021/03/27 19:38:40;;;;;;;183.20;76.90;;;;;;;29.47;24.43;158913.77;1623940;88;21282;-81
2021/03/27 19:41:17;;;;;;;202.35;87.00;;;;;;;29.53;24.23;158929.72;1684844;83;21213;-81
2021/03/27 19:43:57;;;;;;;209.85;87.02;;;;;;;29.55;24.32;158935.06;1664925;85;21369;-81
2021/03/27 19:46:54;;;;;;;220.70;87.45;;;;;;;29.52;24.44;158928.41;1640680;86;21191;-81
2021/03/27 19:49:31;;;;;;;238.12;90.28;;;;;;;29.49;24.55;158919.09;1683241;83;21207;-79
2021/03/27 19:52:55;;;;;;;200.03;84.22;;;;;;;29.48;24.59;158916.44;1688811;85;21182;-79
2021/03/27 19:55:40;;;;;;;188.12;80.95;;;;;;;29.32;24.71;158873.75;1686821;85;21833;-81
2021/03/27 19:58:39;;;;;;;181.95;75.57;;;;;;;29.35;24.82;158881.75;1688978;85;21186;-81
2021/03/27 20:01:31;;;;;;;205.77;81.40;;;;;;;29.35;24.63;158883.06;1689072;85;21768;-78
2021/03/27 20:04:27;;;;;;;229.68;87.67;;;;;;;29.37;24.53;158888.41;1673007;85;21249;-79
2021/03/27 20:07:37;;;;;;;255.52;94.45;;;;;;;29.26;24.73;158856.44;1686282;84;21384;-79
2021/03/27 20:10:37;;;;;;;243.48;89.55;;;;;;;29.31;24.55;158871.08;1657565;86;21245;-79
2021/03/27 20:13:27;;;;;;;241.63;86.75;;;;;;;29.32;24.71;158873.75;1641194;86;21351;-78
2021/03/27 20:16:20;;;;;;;286.98;100.82;;;;;;;29.29;24.68;158865.75;1608235;87;21412;-79
2021/03/27 20:19:06;;;;;;;226.55;86.02;;;;;;;29.14;24.81;158824.48;1631538;88;21230;-80
2021/03/27 20:21:42;;;;;;;199.87;76.80;;;;;;;28.80;25.00;158735.28;1626241;88;21306;-80
2021/03/27 20:24:41;;;;;;;323.65;105.25;;;;;;;28.71;25.03;158709.97;1615391;88;21510;-79
2021/03/27 20:27:33;;;;;;;252.60;95.50;;;;;;;28.63;25.17;158688.69;1619567;88;21885;-80
2021/03/27 20:30:16;;;;;;;312.30;107.60;;;;;;;28.67;25.27;158700.66;1643725;86;21260;-80
2021/03/27 20:33:19;;;;;;;276.40;97.75;;;;;;;28.67;25.28;158699.31;1659896;86;21246;-81
2021/03/27 20:36:12;;;;;;;237.02;85.62;;;;;;;28.74;25.22;158719.28;1614243;87;21222;-80
2021/03/27 20:39:03;;;;;;;239.80;83.70;;;;;;;28.57;25.48;158674.06;1647370;86;21397;-80
2021/03/27 20:42:05;;;;;;;216.33;85.83;;;;;;;28.48;25.62;158650.06;1621571;87;21242;-79
2021/03/27 20:44:46;;;;;;;215.65;79.75;;;;;;;28.51;25.64;158656.75;1614121;88;21268;-79
2021/03/27 20:58:32;;;;;;;205.92;76.75;;;;;;;28.07;25.84;158539.58;1672461;85;21338;-79
2021/03/27 21:01:13;;;;;;;228.05;83.75;;;;;;;28.11;25.90;158548.94;1668249;85;21225;-80
2021/03/27 21:04:13;;;;;;;226.65;86.65;;;;;;;28.16;25.94;158562.20;1681279;85;21367;-80
2021/03/27 21:07:14;;;;;;;214.10;75.40;;;;;;;28.12;25.99;158552.91;1658308;85;21906;-79
2021/03/27 21:10:01;;;;;;;217.15;78.15;;;;;;;28.01;26.18;158522.33;1645386;87;21761;-79
2021/03/27 21:13:10;;;;;;;219.10;77.87;;;;;;;28.00;26.10;158519.66;1669141;83;21759;-81
2021/03/27 21:16:04;;;;;;;212.00;74.17;;;;;;;27.98;26.14;158515.64;1683378;84;21854;-80
2021/03/27 21:18:48;;;;;;;199.77;78.15;;;;;;;27.97;26.20;158511.67;1691234;83;21193;-80
2021/03/27 21:21:31;;;;;;;204.60;75.78;;;;;;;27.84;26.28;158477.08;1665533;84;21874;-79
2021/03/27 21:24:28;;;;;;;207.18;75.90;;;;;;;27.83;26.21;158474.42;1683554;85;21162;-80
2021/03/27 21:27:32;;;;;;;208.53;77.00;;;;;;;27.82;26.16;158471.75;1684143;84;21308;-81
2021/03/27 21:30:49;;;;;;;204.25;75.25;;;;;;;27.66;26.26;158430.53;1686541;83;21344;-82
2021/03/27 21:34:15;;;;;;;196.68;74.40;;;;;;;27.28;26.75;158326.75;1651124;86;21408;-80
2021/03/27 21:37:14;;;;;;;206.50;71.33;;;;;;;27.61;26.48;158417.16;1698931;83;21333;-81
2021/03/27 21:40:03;;;;;;;212.82;76.25;;;;;;;27.50;26.48;158387.91;1700828;83;21327;-80
2021/03/27 21:42:52;;;;;;;196.22;76.87;;;;;;;27.43;26.55;158366.66;1644285;84;21385;-80
2021/03/27 21:45:40;;;;;;;225.30;78.83;;;;;;;27.45;26.56;158373.28;1682417;85;21365;-80
2021/03/27 21:49:07;;;;;;;237.82;84.65;;;;;;;27.22;26.77;158310.81;1683882;84;21353;-78
2021/03/27 21:52:12;;;;;;;228.22;81.20;;;;;;;27.38;26.55;158354.69;1677598;84;21685;-79
2021/03/27 21:55:18;;;;;;;222.88;79.95;;;;;;;27.34;26.56;158342.73;1701559;84;21390;-86
2021/03/27 21:58:04;;;;;;;209.22;75.25;;;;;;;27.19;26.66;158304.19;1688458;84;21233;-78
2021/03/27 22:01:00;;;;;;;197.68;71.90;;;;;;;27.07;26.82;158272.28;1694341;83;21308;-78
2021/03/27 22:04:07;;;;;;;207.92;83.70;;;;;;;26.93;26.84;158233.66;1675117;84;21374;-79
2021/03/27 22:07:22;;;;;;;186.90;71.72;;;;;;;26.91;26.84;158229.69;1688030;84;21389;-77
2021/03/27 22:10:03;;;;;;;149.40;57.60;;;;;;;26.76;26.96;158189.80;1685385;84;21249;-78
2021/03/27 22:13:32;;;;;;;175.15;65.65;;;;;;;26.71;27.04;158176.53;1684510;83;21416;-80
2021/03/27 22:16:27;;;;;;;176.75;65.25;;;;;;;26.87;26.90;158217.72;1685174;84;21411;-80
2021/03/27 22:19:23;;;;;;;150.55;61.15;;;;;;;26.88;26.90;158221.69;1705140;83;21199;-80
2021/03/27 22:21:57;;;;;;;129.60;51.98;;;;;;;27.39;26.55;158356.00;1716692;83;21442;-81
2021/03/27 22:24:42;;;;;;;165.20;60.83;;;;;;;27.11;26.71;158281.58;1706990;83;21240;-81
2021/03/27 22:27:41;;;;;;;142.77;57.05;;;;;;;27.13;26.68;158288.22;1706482;83;21670;-81
2021/03/27 22:30:23;;;;;;;119.70;49.33;;;;;;;27.04;26.82;158264.30;1706536;83;21476;-81
2021/03/27 22:33:19;;;;;;;144.32;57.08;;;;;;;26.97;26.81;158245.59;1706204;83;21186;-81
2021/03/27 22:36:18;;;;;;;125.12;50.10;;;;;;;27.02;26.86;158258.97;1677808;85;21905;-80
2021/03/27 22:39:17;;;;;;;130.85;52.65;;;;;;;26.44;27.00;158102.11;1695116;84;21891;-80
2021/03/27 22:42:15;;;;;;;127.62;50.75;;;;;;;26.86;26.99;158215.06;1705562;84;21190;-80
2021/03/27 22:45:19;;;;;;;128.30;49.98;;;;;;;26.87;27.05;158219.03;1705171;84;21415;-80
2021/03/27 22:48:00;;;;;;;133.32;55.78;;;;;;;26.84;27.02;158211.09;1705947;84;21369;-80
2021/03/27 22:50:57;;;;;;;490.47;221.68;;;;;;;26.94;26.89;158236.31;1703581;84;21353;-77
2021/03/27 22:53:46;;;;;;;219.68;101.30;;;;;;;26.97;26.77;158245.59;1706008;83;21869;-79
2021/03/27 22:56:43;;;;;;;196.93;80.65;;;;;;;27.00;26.87;158252.28;1703806;84;21356;-77
2021/03/27 22:59:29;;;;;;;149.97;63.73;;;;;;;27.00;26.85;158252.28;1705973;84;21162;-79
2021/03/27 23:02:21;;;;;;;139.85;56.28;;;;;;;26.99;26.84;158250.94;1706102;84;21207;-77
2021/03/27 23:04:54;;;;;;;;;;;;;;;26.97;26.90;158245.59;1702725;84;21229;-78
2021/03/27 23:07:43;;;;;;;123.35;50.35;;;;;;;26.92;26.95;158232.34;1705441;84;20538;-79
2021/03/27 23:10:36;;;;;;;118.13;45.92;;;;;;;26.87;27.00;158219.03;1706423;84;21142;-79